createdAt,value
2018-09-20T00:00:18.731Z,14.75
2018-09-20T00:01:18.741Z,14.78
2018-09-20T00:02:19.814Z,14.81
2018-09-20T00:03:19.804Z,14.80
2018-09-20T00:04:19.759Z,14.78
2018-09-20T00:05:21.695Z,14.62
2018-09-20T00:06:18.694Z,14.62
2018-09-20T00:07:18.699Z,14.68
2018-09-20T00:08:18.669Z,14.64
2018-09-20T00:09:19.644Z,14.62
2018-09-20T00:10:19.704Z,14.62
2018-09-20T00:11:19.720Z,14.61
2018-09-20T00:12:18.647Z,14.61
2018-09-20T00:13:18.711Z,14.64
2018-09-20T00:16:03.288Z,14.58
2018-09-20T00:17:02.303Z,14.52
2018-09-20T00:18:02.074Z,14.58
2018-09-20T00:19:02.116Z,14.43
2018-09-20T00:20:02.131Z,14.39
2018-09-20T00:21:02.056Z,14.40
2018-09-20T00:22:02.969Z,14.40
2018-09-20T00:23:01.982Z,14.42
2018-09-20T00:24:02.106Z,14.39
2018-09-20T00:25:01.948Z,14.42
2018-09-20T00:26:01.963Z,14.35
2018-09-20T00:27:02.003Z,14.42
2018-09-20T00:28:03.033Z,14.32
2018-09-20T00:29:01.955Z,14.29
2018-09-20T00:30:02.707Z,14.37
2018-09-20T00:31:01.880Z,14.29
2018-09-20T00:32:22.936Z,14.36
2018-09-20T00:33:01.867Z,14.24
2018-09-20T00:34:01.885Z,14.22
2018-09-20T00:35:02.507Z,14.20
2018-09-20T00:36:02.872Z,14.20
2018-09-20T00:37:02.631Z,14.28
2018-09-20T00:55:20.938Z,14.07
2018-09-20T00:55:39.905Z,14.10
2018-09-20T00:56:39.840Z,14.04
2018-09-20T00:57:39.851Z,14.02
2018-09-20T00:58:39.768Z,14.06
2018-09-20T01:11:31.357Z,13.95
2018-09-20T01:12:31.738Z,13.91
2018-09-20T01:13:31.729Z,13.91
2018-09-20T01:14:31.137Z,13.91
2018-09-20T01:15:31.089Z,13.91
2018-09-20T01:16:31.049Z,13.87
2018-09-20T01:23:59.941Z,13.77
2018-09-20T01:26:22.910Z,13.81
2018-09-20T01:27:23.394Z,13.81
2018-09-20T01:28:22.131Z,13.85
2018-09-20T01:29:22.097Z,13.79
2018-09-20T01:30:22.070Z,13.82
2018-09-20T01:31:33.110Z,13.78
2018-09-20T01:32:22.053Z,13.81
2018-09-20T01:37:26.620Z,13.78
2018-09-20T01:38:25.272Z,13.69
2018-09-20T01:39:24.093Z,13.73
2018-09-20T01:40:24.078Z,13.75
2018-09-20T01:41:24.053Z,13.71
2018-09-20T01:42:24.117Z,13.75
2018-09-20T01:43:24.072Z,13.77
2018-09-20T01:44:25.087Z,13.67
2018-09-20T01:45:24.095Z,13.66
2018-09-20T01:46:25.011Z,13.69
2018-09-20T01:47:23.993Z,13.69
2018-09-20T01:48:23.961Z,13.67
2018-09-20T01:49:23.973Z,13.71
2018-09-20T01:50:23.960Z,13.66
2018-09-20T01:51:23.919Z,13.69
2018-09-20T01:52:23.950Z,13.73
2018-09-20T01:53:23.964Z,13.55
2018-09-20T01:54:23.914Z,13.70
2018-09-20T01:55:23.921Z,13.62
2018-09-20T02:01:10.878Z,13.57
2018-09-20T02:02:10.016Z,13.67
2018-09-20T02:05:05.740Z,13.62
2018-09-20T02:05:58.861Z,13.52
2018-09-20T02:06:59.067Z,13.52
2018-09-20T02:07:57.888Z,13.57
2018-09-20T02:08:57.855Z,13.52
2018-09-20T02:09:57.821Z,13.51
2018-09-20T02:10:58.717Z,13.54
2018-09-20T02:11:57.767Z,13.55
2018-09-20T02:12:57.820Z,13.54
2018-09-20T02:13:57.730Z,13.52
2018-09-20T02:14:57.966Z,13.54
2018-09-20T02:16:00.498Z,13.59
2018-09-20T02:28:38.827Z,13.69
2018-09-20T02:29:36.227Z,13.62
2018-09-20T02:30:36.270Z,13.67
2018-09-20T02:31:36.153Z,13.70
2018-09-20T02:32:36.159Z,13.67
2018-09-20T02:33:36.113Z,13.69
2018-09-20T02:34:36.057Z,13.69
2018-09-20T02:35:36.126Z,13.69
2018-09-20T02:36:36.131Z,13.63
2018-09-20T02:37:36.059Z,13.73
2018-09-20T02:38:36.012Z,13.60
2018-09-20T02:39:36.030Z,13.66
2018-09-20T02:40:36.003Z,13.57
2018-09-20T02:41:36.017Z,13.57
2018-09-20T02:42:35.972Z,13.60
2018-09-20T02:43:36.003Z,13.52
2018-09-20T02:44:35.943Z,13.57
2018-09-20T02:45:35.958Z,13.54
2018-09-20T02:47:47.338Z,13.57
2018-09-20T02:48:47.370Z,13.54
2018-09-20T02:49:47.129Z,13.55
2018-09-20T02:50:47.164Z,13.54
2018-09-20T02:51:47.126Z,13.51
2018-09-20T02:52:47.041Z,13.54
2018-09-20T02:53:46.984Z,13.55
2018-09-20T02:54:46.950Z,13.57
2018-09-20T02:55:46.971Z,13.52
2018-09-20T02:56:46.977Z,13.49
2018-09-20T02:57:46.917Z,13.52
2018-09-20T02:58:46.976Z,13.49
2018-09-20T02:59:46.917Z,13.45
2018-09-20T03:00:46.878Z,13.52
2018-09-20T03:01:46.882Z,13.44
2018-09-20T03:02:46.908Z,13.41
2018-09-20T03:03:46.845Z,13.42
2018-09-20T03:04:46.875Z,13.41
2018-09-20T03:05:46.877Z,13.38
2018-09-20T03:06:46.817Z,13.49
2018-09-20T03:07:46.861Z,13.39
2018-09-20T03:17:44.267Z,13.20
2018-09-20T03:18:09.762Z,13.32
2018-09-20T03:19:32.036Z,13.32
2018-09-20T03:25:55.632Z,13.23
2018-09-20T03:26:55.690Z,13.12
2018-09-20T03:28:00.814Z,13.17
2018-09-20T03:28:45.393Z,13.22
2018-09-20T03:29:56.043Z,13.17
2018-09-20T03:35:46.299Z,13.12
2018-09-20T03:36:48.408Z,13.15
2018-09-20T03:43:50.765Z,13.11
2018-09-20T03:44:50.830Z,13.17
2018-09-20T03:46:04.164Z,13.05
2018-09-20T03:47:12.023Z,13.08
2018-09-20T03:47:50.957Z,12.97
2018-09-20T03:48:50.896Z,12.96
2018-09-20T03:50:05.367Z,13.07
2018-09-20T03:50:50.872Z,13.07
2018-09-20T03:51:50.871Z,12.95
2018-09-20T03:52:51.424Z,13.00
2018-09-20T03:53:51.222Z,13.03
2018-09-20T03:54:50.595Z,13.03
2018-09-20T03:55:50.579Z,12.97
2018-09-20T03:56:50.586Z,12.86
2018-09-20T03:57:50.527Z,12.87
2018-09-20T03:58:50.582Z,12.92
2018-09-20T03:59:50.503Z,12.92
2018-09-20T04:00:50.526Z,12.92
2018-09-20T04:01:50.507Z,12.85
2018-09-20T04:02:50.519Z,12.90
2018-09-20T04:03:51.108Z,12.86
2018-09-20T04:04:50.607Z,12.87
2018-09-20T04:05:50.475Z,12.86
2018-09-20T04:06:50.419Z,12.86
2018-09-20T04:07:50.407Z,12.85
2018-09-20T04:08:50.402Z,12.85
2018-09-20T04:09:50.496Z,12.86
2018-09-20T04:10:50.344Z,12.82
2018-09-20T04:11:50.341Z,12.79
2018-09-20T04:12:50.344Z,12.82
2018-09-20T04:13:50.334Z,12.83
2018-09-20T04:14:50.308Z,12.78
2018-09-20T04:15:50.320Z,12.78
2018-09-20T04:16:50.261Z,12.67
2018-09-20T04:17:50.272Z,12.89
2018-09-20T04:18:50.319Z,12.78
2018-09-20T04:19:50.244Z,12.71
2018-09-20T04:20:51.262Z,12.77
2018-09-20T04:21:50.249Z,12.68
2018-09-20T04:22:50.201Z,12.83
2018-09-20T04:23:50.209Z,12.62
2018-09-20T04:24:50.176Z,12.83
2018-09-20T04:25:50.212Z,12.71
2018-09-20T04:26:50.171Z,12.74
2018-09-20T04:27:50.164Z,12.82
2018-09-20T04:28:50.142Z,12.78
2018-09-20T04:29:50.154Z,12.72
2018-09-20T04:30:50.266Z,12.68
2018-09-20T04:31:53.671Z,12.67
2018-09-20T04:33:12.026Z,12.71
2018-09-20T04:33:50.265Z,12.72
2018-09-20T04:34:50.278Z,12.74
2018-09-20T04:35:50.252Z,12.70
2018-09-20T04:36:50.115Z,12.72
2018-09-20T04:37:51.111Z,12.62
2018-09-20T04:38:50.032Z,12.70
2018-09-20T04:39:50.001Z,12.67
2018-09-20T04:40:50.079Z,12.62
2018-09-20T04:41:50.025Z,12.57
2018-09-20T04:42:49.971Z,12.62
2018-09-20T04:43:50.026Z,12.67
2018-09-20T04:44:49.945Z,12.60
2018-09-20T04:45:49.949Z,12.59
2018-09-20T04:46:54.645Z,12.64
2018-09-20T04:47:49.935Z,12.64
2018-09-20T04:48:50.014Z,12.65
2018-09-20T04:49:49.947Z,12.65
2018-09-20T04:50:49.935Z,12.64
2018-09-20T04:51:49.907Z,12.64
2018-09-20T04:52:49.843Z,12.59
2018-09-20T04:53:49.930Z,12.65
2018-09-20T04:54:49.867Z,12.70
2018-09-20T04:55:50.097Z,12.68
2018-09-20T05:00:03.724Z,12.72
2018-09-20T05:01:16.822Z,12.72
2018-09-20T05:02:03.267Z,12.72
2018-09-20T05:03:04.871Z,12.75
2018-09-20T05:04:04.147Z,12.75
2018-09-20T05:05:03.479Z,12.68
2018-09-20T05:06:04.218Z,12.77
2018-09-20T05:07:03.117Z,12.74
2018-09-20T05:08:03.102Z,12.86
2018-09-20T05:09:03.081Z,12.86
2018-09-20T05:10:03.799Z,12.77
2018-09-20T05:11:03.123Z,12.68
2018-09-20T05:12:03.795Z,12.85
2018-09-20T05:13:03.069Z,12.82
2018-09-20T05:14:03.062Z,12.71
2018-09-20T05:15:03.007Z,12.83
2018-09-20T05:16:03.037Z,12.82
2018-09-20T05:17:03.010Z,12.86
2018-09-20T05:18:02.985Z,12.75
2018-09-20T05:19:02.968Z,12.74
2018-09-20T05:20:02.987Z,12.89
2018-09-20T05:21:02.948Z,12.75
2018-09-20T05:22:03.016Z,12.75
2018-09-20T05:23:02.955Z,12.71
2018-09-20T05:24:02.915Z,12.72
2018-09-20T05:25:02.904Z,12.79
2018-09-20T05:26:02.923Z,12.78
2018-09-20T05:27:02.889Z,12.79
2018-09-20T05:28:02.929Z,12.85
2018-09-20T05:29:02.865Z,12.87
2018-09-20T05:30:02.861Z,12.85
2018-09-20T05:31:03.808Z,12.89
2018-09-20T05:32:02.840Z,12.90
2018-09-20T05:33:02.828Z,12.93
2018-09-20T05:34:02.829Z,13.01
2018-09-20T05:35:03.288Z,13.04
2018-09-20T05:36:02.773Z,12.96
2018-09-20T05:37:02.775Z,12.96
2018-09-20T05:38:02.771Z,13.14
2018-09-20T05:39:02.748Z,13.07
2018-09-20T05:40:03.729Z,13.15
2018-09-20T05:41:02.723Z,13.19
2018-09-20T05:42:02.725Z,13.23
2018-09-20T05:43:02.731Z,13.30
2018-09-20T05:44:02.691Z,13.28
2018-09-20T05:45:02.676Z,13.29
2018-09-20T05:46:02.678Z,13.32
2018-09-20T05:47:02.647Z,13.46
2018-09-20T05:48:02.653Z,13.45
2018-09-20T05:49:02.641Z,13.52
2018-09-20T05:50:02.672Z,13.54
2018-09-20T05:51:02.604Z,13.48
2018-09-20T05:52:02.592Z,13.64
2018-09-20T05:53:02.597Z,13.64
2018-09-20T05:54:02.819Z,13.71
2018-09-20T05:55:02.560Z,13.71
2018-09-20T05:56:02.551Z,13.75
2018-09-20T05:57:02.539Z,13.67
2018-09-20T05:58:02.553Z,13.79
2018-09-20T05:59:02.555Z,13.79
2018-09-20T06:00:02.512Z,13.79
2018-09-20T06:01:02.488Z,13.78
2018-09-20T06:02:02.494Z,13.84
2018-09-20T06:03:02.477Z,13.85
2018-09-20T06:04:02.462Z,13.84
2018-09-20T06:05:02.472Z,13.84
2018-09-20T06:06:02.457Z,13.92
2018-09-20T06:07:03.437Z,13.87
2018-09-20T06:08:04.294Z,13.92
2018-09-20T06:09:02.432Z,13.96
2018-09-20T06:10:03.351Z,14.02
2018-09-20T06:11:02.385Z,14.07
2018-09-20T06:12:02.367Z,14.09
2018-09-20T06:13:02.357Z,14.09
2018-09-20T06:14:02.372Z,14.12
2018-09-20T06:15:02.374Z,14.21
2018-09-20T06:16:02.328Z,14.22
2018-09-20T06:17:02.312Z,14.24
2018-09-20T06:18:02.317Z,14.33
2018-09-20T06:19:02.282Z,14.40
2018-09-20T06:20:02.277Z,14.39
2018-09-20T06:21:02.332Z,14.58
2018-09-20T06:22:02.263Z,14.60
2018-09-20T06:23:02.240Z,14.64
2018-09-20T06:24:02.240Z,14.72
2018-09-20T06:25:02.231Z,14.68
2018-09-20T06:26:02.206Z,14.70
2018-09-20T06:27:02.207Z,14.83
2018-09-20T06:28:02.187Z,14.78
2018-09-20T06:29:02.210Z,15.27
2018-09-20T06:30:02.190Z,15.74
2018-09-20T06:31:02.154Z,16.64
2018-09-20T06:32:02.221Z,17.38
2018-09-20T06:33:02.138Z,18.05
2018-09-20T06:34:02.118Z,18.65
2018-09-20T06:35:02.171Z,19.28
2018-09-20T06:36:02.114Z,19.66
2018-09-20T06:37:02.083Z,20.16
2018-09-20T06:38:02.125Z,20.69
2018-09-20T06:39:02.077Z,21.13
2018-09-20T06:40:02.051Z,21.54
2018-09-20T06:41:02.094Z,21.94
2018-09-20T06:42:02.025Z,22.31
2018-09-20T06:43:02.058Z,22.73
2018-09-20T06:44:02.013Z,23.07
2018-09-20T06:45:02.029Z,23.39
2018-09-20T06:46:02.014Z,23.73
2018-09-20T06:47:01.977Z,24.08
2018-09-20T06:48:11.543Z,24.43
2018-09-20T06:49:02.074Z,24.78
2018-09-20T06:50:02.066Z,25.09
2018-09-20T06:51:02.036Z,25.47
2018-09-20T06:52:02.049Z,25.76
2018-09-20T06:53:01.916Z,26.02
2018-09-20T06:54:01.909Z,26.25
2018-09-20T06:55:01.900Z,26.45
2018-09-20T06:56:01.865Z,26.58
2018-09-20T06:57:01.860Z,26.70
2018-09-20T06:58:01.885Z,26.89
2018-09-20T06:59:01.864Z,27.10
2018-09-20T07:00:01.825Z,27.32
2018-09-20T07:01:01.815Z,27.51
2018-09-20T07:02:01.808Z,27.70
2018-09-20T07:03:01.871Z,27.85
2018-09-20T07:04:01.836Z,27.93
2018-09-20T07:05:01.771Z,28.06
2018-09-20T07:06:01.763Z,28.09
2018-09-20T07:07:01.762Z,28.15
2018-09-20T07:08:01.731Z,28.22
2018-09-20T07:09:01.726Z,28.21
2018-09-20T07:10:01.730Z,28.17
2018-09-20T07:11:01.698Z,28.07
2018-09-20T07:12:01.695Z,27.87
2018-09-20T07:13:01.681Z,27.81
2018-09-20T07:14:01.670Z,27.50
2018-09-20T07:15:01.867Z,27.14
2018-09-20T07:16:01.668Z,27.03
2018-09-20T07:17:01.665Z,26.81
2018-09-20T07:18:01.631Z,26.67
2018-09-20T07:19:01.645Z,26.44
2018-09-20T07:20:01.601Z,26.35
2018-09-20T07:21:01.598Z,26.25
2018-09-20T07:22:01.581Z,26.13
2018-09-20T07:23:01.572Z,25.97
2018-09-20T07:24:01.610Z,25.87
2018-09-20T07:25:01.609Z,25.79
2018-09-20T07:26:01.561Z,25.55
2018-09-20T07:27:01.527Z,25.51
2018-09-20T07:28:01.527Z,25.45
2018-09-20T07:29:01.511Z,25.39
2018-09-20T07:30:01.499Z,25.33
2018-09-20T07:31:01.487Z,25.18
2018-09-20T07:32:02.781Z,25.06
2018-09-20T07:33:01.460Z,25.09
2018-09-20T07:34:01.447Z,25.02
2018-09-20T07:35:01.472Z,24.98
2018-09-20T07:36:02.418Z,24.87
2018-09-20T07:37:01.443Z,24.73
2018-09-20T07:38:01.443Z,24.68
2018-09-20T07:39:01.396Z,24.77
2018-09-20T07:40:01.379Z,24.68
2018-09-20T07:41:01.414Z,24.53
2018-09-20T07:42:01.351Z,24.55
2018-09-20T07:43:02.373Z,24.45
2018-09-20T07:44:01.351Z,24.35
2018-09-20T07:45:01.329Z,24.32
2018-09-20T07:46:01.320Z,24.22
2018-09-20T07:47:01.309Z,24.15
2018-09-20T07:48:01.863Z,24.08
2018-09-20T07:49:01.301Z,24.05
2018-09-20T07:50:01.273Z,24.02
2018-09-20T07:51:01.282Z,24.08
2018-09-20T07:52:01.272Z,24.00
2018-09-20T07:53:01.290Z,23.95
2018-09-20T07:54:01.857Z,23.98
2018-09-20T07:55:01.215Z,23.83
2018-09-20T07:56:01.805Z,23.83
2018-09-20T07:57:01.203Z,23.76
2018-09-20T07:58:01.179Z,23.65
2018-09-20T07:59:01.209Z,23.68
2018-09-20T08:00:02.204Z,23.66
2018-09-20T08:01:01.157Z,23.84
2018-09-20T08:02:01.279Z,23.80
2018-09-20T08:03:01.122Z,23.76
2018-09-20T08:04:01.805Z,23.79
2018-09-20T08:05:01.131Z,23.84
2018-09-20T08:06:01.110Z,23.90
2018-09-20T08:07:01.090Z,23.94
2018-09-20T08:08:01.072Z,23.95
2018-09-20T08:09:01.060Z,24.06
2018-09-20T08:10:01.108Z,23.97
2018-09-20T08:11:01.075Z,23.98
2018-09-20T08:12:01.035Z,23.93
2018-09-20T08:13:02.063Z,23.90
2018-09-20T08:14:01.007Z,23.95
2018-09-20T08:15:02.050Z,23.98
2018-09-20T08:16:01.853Z,23.97
2018-09-20T08:17:00.986Z,24.00
2018-09-20T08:18:00.974Z,24.08
2018-09-20T08:19:00.962Z,24.13
2018-09-20T08:20:00.946Z,24.15
2018-09-20T08:21:00.981Z,24.18
2018-09-20T08:22:00.980Z,24.18
2018-09-20T08:23:00.906Z,24.10
2018-09-20T08:24:00.896Z,24.22
2018-09-20T08:25:00.895Z,24.25
2018-09-20T08:26:01.811Z,24.20
2018-09-20T08:27:00.914Z,24.25
2018-09-20T08:28:00.903Z,24.09
2018-09-20T08:29:01.367Z,24.09
2018-09-20T08:30:00.911Z,24.12
2018-09-20T08:31:01.376Z,24.10
2018-09-20T08:32:00.814Z,24.06
2018-09-20T08:33:00.821Z,24.10
2018-09-20T08:34:02.366Z,24.10
2018-09-20T08:35:00.799Z,24.12
2018-09-20T08:36:00.766Z,24.12
2018-09-20T08:37:00.775Z,24.13
2018-09-20T08:38:00.748Z,24.10
2018-09-20T08:39:00.776Z,24.10
2018-09-20T08:40:00.718Z,24.15
2018-09-20T08:41:00.734Z,24.08
2018-09-20T08:42:00.724Z,24.08
2018-09-20T08:43:00.753Z,24.03
2018-09-20T08:44:00.692Z,24.09
2018-09-20T08:45:00.752Z,24.08
2018-09-20T08:46:01.354Z,24.10
2018-09-20T08:47:00.645Z,24.06
2018-09-20T08:48:00.635Z,24.03
2018-09-20T08:49:00.620Z,24.10
2018-09-20T08:50:00.631Z,24.09
2018-09-20T08:51:00.683Z,24.20
2018-09-20T08:52:00.589Z,24.30
2018-09-20T08:53:00.603Z,24.31
2018-09-20T08:54:00.576Z,24.32
2018-09-20T08:55:00.555Z,24.39
2018-09-20T08:56:01.363Z,24.37
2018-09-20T08:57:00.586Z,24.43
2018-09-20T08:58:00.550Z,24.47
2018-09-20T08:59:00.538Z,24.52
2018-09-20T09:00:00.505Z,24.60
2018-09-20T09:01:01.900Z,24.71
2018-09-20T09:02:00.487Z,24.62
2018-09-20T09:03:00.465Z,24.71
2018-09-20T09:04:00.492Z,24.68
2018-09-20T09:05:00.467Z,24.68
2018-09-20T09:06:00.434Z,24.57
2018-09-20T09:07:00.475Z,24.68
2018-09-20T09:08:00.436Z,24.73
2018-09-20T09:09:00.454Z,24.78
2018-09-20T09:10:01.382Z,24.76
2018-09-20T09:11:00.396Z,24.73
2018-09-20T09:12:00.404Z,24.83
2018-09-20T09:13:00.407Z,24.77
2018-09-20T09:14:00.351Z,24.68
2018-09-20T09:15:00.375Z,24.84
2018-09-20T09:16:00.343Z,24.88
2018-09-20T09:17:10.956Z,24.84
2018-09-20T09:18:00.322Z,24.85
2018-09-20T09:19:00.451Z,24.93
2018-09-20T09:20:00.309Z,24.81
2018-09-20T09:21:00.280Z,24.83
2018-09-20T09:22:00.302Z,24.84
2018-09-20T09:23:00.284Z,24.84
2018-09-20T09:24:01.301Z,24.91
2018-09-20T09:25:00.260Z,24.85
2018-09-20T09:26:00.219Z,24.93
2018-09-20T09:27:00.215Z,24.99
2018-09-20T09:28:00.265Z,25.02
2018-09-20T09:29:00.190Z,25.06
2018-09-20T09:30:00.180Z,25.06
2018-09-20T09:31:00.223Z,25.18
2018-09-20T09:32:00.159Z,25.21
2018-09-20T09:33:00.200Z,25.25
2018-09-20T09:34:00.157Z,25.27
2018-09-20T09:35:00.132Z,25.32
2018-09-20T09:36:00.254Z,25.25
2018-09-20T09:37:00.113Z,25.30
2018-09-20T09:38:00.134Z,25.32
2018-09-20T09:39:00.115Z,25.32
2018-09-20T09:40:00.080Z,25.27
2018-09-20T09:41:00.115Z,25.28
2018-09-20T09:42:00.056Z,25.33
2018-09-20T09:43:00.057Z,25.25
2018-09-20T09:44:00.033Z,25.33
2018-09-20T09:45:00.050Z,25.43
2018-09-20T09:46:00.002Z,25.39
2018-09-20T09:47:00.000Z,25.45
2018-09-20T09:48:00.009Z,25.47
2018-09-20T09:48:59.995Z,25.40
2018-09-20T09:49:59.950Z,25.38
2018-09-20T09:50:59.949Z,25.40
2018-09-20T09:51:59.939Z,25.39
2018-09-20T09:52:59.938Z,25.24
2018-09-20T09:54:00.884Z,25.28
2018-09-20T09:54:59.932Z,25.33
2018-09-20T09:55:59.892Z,25.39
2018-09-20T09:57:00.832Z,25.35
2018-09-20T09:57:59.895Z,25.38
2018-09-20T09:58:59.867Z,25.46
2018-09-20T09:59:59.874Z,25.45
2018-09-20T10:01:01.368Z,25.47
2018-09-20T10:01:59.868Z,25.51
2018-09-20T10:03:01.379Z,25.54
2018-09-20T10:03:59.808Z,25.50
2018-09-20T10:04:59.808Z,25.52
2018-09-20T10:06:00.380Z,25.51
2018-09-20T10:06:59.799Z,25.45
2018-09-20T10:07:59.775Z,25.51
2018-09-20T10:08:59.832Z,25.60
2018-09-20T10:09:59.741Z,25.62
2018-09-20T10:10:59.739Z,25.72
2018-09-20T10:11:59.724Z,25.76
2018-09-20T10:12:59.787Z,25.72
2018-09-20T10:14:00.736Z,25.69
2018-09-20T10:14:59.694Z,25.65
2018-09-20T10:15:59.689Z,25.65
2018-09-20T10:16:59.739Z,25.58
2018-09-20T10:17:59.717Z,25.54
2018-09-20T10:18:59.648Z,25.50
2018-09-20T10:19:59.690Z,25.62
2018-09-20T10:20:59.620Z,25.65
2018-09-20T10:21:59.645Z,25.64
2018-09-20T10:22:59.624Z,25.61
2018-09-20T10:23:59.786Z,25.60
2018-09-20T10:24:59.583Z,25.38
2018-09-20T10:25:59.567Z,25.35
2018-09-20T10:26:59.560Z,25.39
2018-09-20T10:27:59.560Z,25.32
2018-09-20T10:29:00.578Z,25.27
2018-09-20T10:29:59.585Z,25.18
2018-09-20T10:30:59.527Z,25.17
2018-09-20T10:31:59.509Z,25.05
2018-09-20T10:32:59.495Z,25.03
2018-09-20T10:33:59.552Z,25.08
2018-09-20T10:34:59.491Z,24.98
2018-09-20T10:35:59.473Z,24.99
2018-09-20T10:36:59.463Z,24.91
2018-09-20T10:37:59.459Z,24.95
2018-09-20T10:38:59.441Z,24.87
2018-09-20T10:39:59.521Z,24.84
2018-09-20T10:41:00.403Z,24.85
2018-09-20T10:41:59.414Z,24.81
2018-09-20T10:42:59.395Z,24.91
2018-09-20T10:43:59.430Z,24.87
2018-09-20T10:44:59.380Z,24.90
2018-09-20T10:45:59.405Z,25.08
2018-09-20T10:46:59.370Z,25.09
2018-09-20T10:47:59.351Z,25.18
2018-09-20T10:48:59.345Z,25.20
2018-09-20T10:49:59.314Z,25.24
2018-09-20T10:50:59.338Z,25.46
2018-09-20T10:51:59.296Z,25.55
2018-09-20T10:52:59.283Z,25.70
2018-09-20T10:53:59.280Z,25.85
2018-09-20T10:54:59.265Z,25.95
2018-09-20T10:55:59.278Z,26.13
2018-09-20T10:56:59.252Z,26.26
2018-09-20T10:57:59.228Z,26.36
2018-09-20T10:58:59.272Z,26.40
2018-09-20T10:59:59.197Z,26.44
2018-09-20T11:00:59.221Z,26.65
2018-09-20T11:01:59.198Z,26.72
2018-09-20T11:02:59.299Z,26.82
2018-09-20T11:03:59.174Z,26.95
2018-09-20T11:04:59.149Z,27.12
2018-09-20T11:05:59.224Z,27.27
2018-09-20T11:06:59.125Z,27.31
2018-09-20T11:07:59.124Z,27.36
2018-09-20T11:08:59.108Z,27.51
2018-09-20T11:09:59.145Z,27.57
2018-09-20T11:10:59.113Z,27.74
2018-09-20T11:11:59.107Z,27.78
2018-09-20T11:12:59.060Z,27.82
2018-09-20T11:13:59.059Z,27.87
2018-09-20T11:14:59.058Z,27.93
2018-09-20T11:15:59.023Z,27.94
2018-09-20T11:16:59.049Z,27.90
2018-09-20T11:17:59.018Z,27.96
2018-09-20T11:18:58.994Z,28.00
2018-09-20T11:19:58.984Z,28.06
2018-09-20T11:20:59.049Z,28.15
2018-09-20T11:21:58.983Z,28.18
2018-09-20T11:22:58.980Z,28.37
2018-09-20T11:23:58.939Z,28.48
2018-09-20T11:24:58.972Z,28.58
2018-09-20T11:25:58.996Z,28.62
2018-09-20T11:26:58.906Z,28.62
2018-09-20T11:27:58.916Z,28.71
2018-09-20T11:28:58.892Z,28.70
2018-09-20T11:29:58.901Z,28.66
2018-09-20T11:30:58.863Z,28.68
2018-09-20T11:31:58.872Z,28.74
2018-09-20T11:34:39.524Z,28.59
2018-09-20T11:35:10.421Z,28.56
2018-09-20T11:36:10.126Z,28.54
2018-09-20T11:37:10.061Z,28.64
2018-09-20T11:38:10.814Z,28.58
2018-09-20T11:39:10.015Z,28.62
2018-09-20T11:40:10.012Z,28.66
2018-09-20T11:41:09.997Z,28.70
2018-09-20T11:42:10.007Z,28.71
2018-09-20T11:43:10.064Z,28.76
2018-09-20T11:44:09.961Z,28.81
2018-09-20T11:45:09.982Z,28.86
2018-09-20T11:46:09.939Z,28.88
2018-09-20T11:47:09.918Z,28.93
2018-09-20T11:48:10.996Z,29.02
2018-09-20T11:49:10.936Z,29.05
2018-09-20T11:50:09.936Z,29.08
2018-09-20T11:51:09.913Z,29.02
2018-09-20T11:52:09.864Z,28.86
2018-09-20T11:53:09.896Z,28.81
2018-09-20T11:54:09.894Z,28.78
2018-09-20T11:55:09.900Z,28.73
2018-09-20T11:56:09.831Z,28.68
2018-09-20T11:57:09.823Z,28.61
2018-09-20T11:58:09.806Z,28.48
2018-09-20T11:59:09.829Z,28.56
2018-09-20T12:00:09.825Z,28.61
2018-09-20T12:01:09.820Z,28.54
2018-09-20T12:02:09.758Z,28.49
2018-09-20T12:03:09.743Z,28.29
2018-09-20T12:04:09.803Z,28.41
2018-09-20T12:05:09.779Z,28.48
2018-09-20T12:06:09.711Z,28.49
2018-09-20T12:07:09.713Z,28.48
2018-09-20T12:08:09.691Z,28.51
2018-09-20T12:09:09.713Z,28.41
2018-09-20T12:10:09.675Z,28.46
2018-09-20T12:11:09.726Z,28.52
2018-09-20T12:12:10.281Z,28.49
2018-09-20T12:13:09.668Z,28.56
2018-09-20T12:14:09.626Z,28.62
2018-09-20T12:15:09.809Z,28.66
2018-09-20T12:16:09.604Z,28.78
2018-09-20T12:17:09.664Z,28.88
2018-09-20T12:18:09.591Z,28.90
2018-09-20T12:19:09.598Z,28.83
2018-09-20T12:20:09.588Z,28.77
2018-09-20T12:21:09.549Z,28.83
2018-09-20T12:22:09.543Z,28.77
2018-09-20T12:23:09.533Z,28.78
2018-09-20T12:24:09.525Z,28.76
2018-09-20T12:25:09.509Z,28.74
2018-09-20T12:26:09.531Z,28.83
2018-09-20T12:27:09.487Z,28.77
2018-09-20T12:28:09.478Z,28.78
2018-09-20T12:29:09.564Z,28.68
2018-09-20T12:30:09.451Z,28.64
2018-09-20T12:31:09.456Z,28.73
2018-09-20T12:32:10.460Z,28.81
2018-09-20T12:33:09.486Z,28.90
2018-09-20T12:34:09.413Z,29.12
2018-09-20T12:35:09.412Z,29.24
2018-09-20T12:36:09.382Z,29.34
2018-09-20T12:37:09.425Z,29.46
2018-09-20T12:38:09.447Z,29.42
2018-09-20T12:39:09.358Z,29.48
2018-09-20T12:40:09.342Z,29.52
2018-09-20T12:41:09.334Z,29.64
2018-09-20T12:42:09.322Z,29.67
2018-09-20T12:43:09.399Z,29.76
2018-09-20T12:44:09.312Z,29.78
2018-09-20T12:45:09.315Z,29.79
2018-09-20T12:46:09.278Z,29.71
2018-09-20T12:47:09.315Z,29.78
2018-09-20T12:48:09.313Z,29.70
2018-09-20T12:49:10.250Z,29.78
2018-09-20T12:50:09.236Z,29.67
2018-09-20T12:51:09.255Z,29.53
2018-09-20T12:52:09.208Z,29.39
2018-09-20T12:53:09.863Z,29.23
2018-09-20T12:54:09.247Z,28.88
2018-09-20T12:55:09.193Z,28.71
2018-09-20T12:56:09.168Z,28.61
2018-09-20T12:57:09.191Z,28.52
2018-09-20T12:58:09.162Z,28.39
2018-09-20T12:59:09.183Z,28.25
2018-09-20T13:00:09.128Z,28.22
2018-09-20T13:01:09.130Z,28.09
2018-09-20T13:02:09.178Z,28.09
2018-09-20T13:03:09.102Z,28.17
2018-09-20T13:04:09.082Z,28.14
2018-09-20T13:05:09.071Z,28.15
2018-09-20T13:06:09.065Z,28.33
2018-09-20T13:07:09.085Z,28.41
2018-09-20T13:08:09.072Z,28.48
2018-09-20T13:09:09.049Z,28.58
2018-09-20T13:10:09.013Z,28.54
2018-09-20T13:11:09.005Z,28.55
2018-09-20T13:12:09.023Z,28.44
2018-09-20T13:13:09.075Z,28.52
2018-09-20T13:14:08.976Z,28.59
2018-09-20T13:15:08.990Z,28.62
2018-09-20T13:16:08.945Z,28.62
2018-09-20T13:17:10.036Z,28.70
2018-09-20T13:18:08.923Z,28.80
2018-09-20T13:19:08.924Z,28.92
2018-09-20T13:20:09.089Z,28.98
2018-09-20T13:21:09.883Z,29.02
2018-09-20T13:22:08.911Z,29.00
2018-09-20T13:23:08.880Z,29.15
2018-09-20T13:24:08.850Z,29.11
2018-09-20T13:25:08.856Z,29.08
2018-09-20T13:26:08.847Z,29.04
2018-09-20T13:27:09.856Z,28.90
2018-09-20T13:28:08.839Z,28.96
2018-09-20T13:29:08.798Z,28.95
2018-09-20T13:30:08.814Z,29.12
2018-09-20T13:31:08.795Z,29.24
2018-09-20T13:32:40.347Z,29.09
2018-09-20T13:33:08.775Z,29.16
2018-09-20T13:34:08.770Z,29.09
2018-09-20T13:35:08.739Z,29.11
2018-09-20T13:36:08.726Z,29.04
2018-09-20T13:37:08.801Z,28.85
2018-09-20T13:38:08.707Z,28.71
2018-09-20T13:39:08.722Z,28.68
2018-09-20T13:40:08.701Z,28.64
2018-09-20T13:41:08.716Z,28.66
2018-09-20T13:42:08.659Z,28.56
2018-09-20T13:43:08.657Z,28.56
2018-09-20T13:44:08.683Z,28.59
2018-09-20T13:45:08.649Z,28.55
2018-09-20T13:46:08.617Z,28.52
2018-09-20T13:47:29.723Z,28.55
2018-09-20T13:48:09.315Z,28.49
2018-09-20T13:49:08.617Z,28.55
2018-09-20T13:50:08.624Z,28.46
2018-09-20T13:51:08.554Z,28.55
2018-09-20T13:52:08.582Z,28.55
2018-09-20T13:53:09.556Z,28.46
2018-09-20T13:54:08.562Z,28.49
2018-09-20T13:55:08.594Z,28.55
2018-09-20T13:56:08.526Z,28.55
2018-09-20T13:57:10.360Z,28.46
2018-09-20T13:58:08.483Z,28.51
2018-09-20T13:59:08.472Z,28.40
2018-09-20T14:00:08.481Z,28.29
2018-09-20T14:01:08.450Z,28.31
2018-09-20T14:02:08.481Z,28.22
2018-09-20T14:03:08.435Z,28.22
2018-09-20T14:04:08.412Z,28.25
2018-09-20T14:05:08.429Z,28.21
2018-09-20T14:06:08.430Z,28.25
2018-09-20T14:07:08.832Z,28.39
2018-09-20T14:08:08.440Z,28.54
2018-09-20T14:09:08.361Z,28.54
2018-09-20T14:10:08.371Z,28.59
2018-09-20T14:11:08.459Z,28.62
2018-09-20T14:12:08.348Z,28.70
2018-09-20T14:13:08.432Z,28.76
2018-09-20T14:14:09.318Z,28.85
2018-09-20T14:15:08.303Z,28.92
2018-09-20T14:16:08.304Z,28.92
2018-09-20T14:17:08.305Z,28.98
2018-09-20T14:18:08.283Z,28.98
2018-09-20T14:19:08.320Z,29.21
2018-09-20T14:20:08.245Z,29.16
2018-09-20T14:21:08.230Z,29.24
2018-09-20T14:22:08.828Z,29.09
2018-09-20T14:23:08.239Z,29.16